createdAt,value
2019-02-19T00:01:57.817Z,34.00
2019-02-19T00:04:26.954Z,30.60
2019-02-19T00:06:54.252Z,38.37
2019-02-19T00:09:21.997Z,31.37
2019-02-19T00:11:49.300Z,33.40
2019-02-19T00:14:16.593Z,32.10
2019-02-19T00:16:43.895Z,30.03
2019-02-19T00:19:11.179Z,35.63
2019-02-19T00:21:38.478Z,32.67
2019-02-19T00:24:05.767Z,29.83
2019-02-19T00:26:33.062Z,29.23
2019-02-19T00:29:00.346Z,29.03
2019-02-19T00:31:27.661Z,29.30
2019-02-19T00:33:54.967Z,31.27
2019-02-19T00:36:22.281Z,29.23
2019-02-19T00:38:49.588Z,31.73
2019-02-19T00:41:17.073Z,26.63
2019-02-19T00:43:44.373Z,29.50
2019-02-19T00:46:11.584Z,28.90
2019-02-19T00:48:38.925Z,31.20
2019-02-19T00:51:06.215Z,28.17
2019-02-19T00:53:34.525Z,28.93
2019-02-19T00:56:01.841Z,29.23
2019-02-19T00:58:29.113Z,28.37
2019-02-19T01:00:56.341Z,26.20
2019-02-19T01:03:23.646Z,22.70
2019-02-19T01:05:50.886Z,38.97
2019-02-19T01:08:18.206Z,29.90
2019-02-19T01:10:45.501Z,26.97
2019-02-19T01:13:12.806Z,30.87
2019-02-19T01:15:40.075Z,27.63
2019-02-19T01:18:09.984Z,26.00
2019-02-19T01:20:37.262Z,27.17
2019-02-19T01:23:04.526Z,26.67
2019-02-19T01:25:31.750Z,25.40
2019-02-19T01:27:59.020Z,27.37
2019-02-19T01:30:26.246Z,26.60
2019-02-19T01:32:53.436Z,27.73
2019-02-19T01:35:20.612Z,24.63
2019-02-19T01:37:47.861Z,27.30
2019-02-19T01:40:15.044Z,26.87
2019-02-19T01:42:42.248Z,24.73
2019-02-19T01:45:09.419Z,26.60
2019-02-19T01:47:36.918Z,26.40
2019-02-19T01:50:05.583Z,23.07
2019-02-19T01:52:32.764Z,23.70
2019-02-19T01:54:59.945Z,24.60
2019-02-19T01:57:27.537Z,24.83
2019-02-19T01:59:54.718Z,25.43
2019-02-19T02:02:21.920Z,26.87
2019-02-19T02:04:49.168Z,23.70
2019-02-19T02:07:16.357Z,30.43
2019-02-19T02:09:44.018Z,27.30
2019-02-19T02:12:11.194Z,22.87
2019-02-19T02:14:38.369Z,24.43
2019-02-19T02:17:05.575Z,27.57
2019-02-19T02:19:32.767Z,26.63
2019-02-19T02:21:59.955Z,24.33
2019-02-19T02:24:27.146Z,23.73
2019-02-19T02:26:54.314Z,27.33
2019-02-19T02:29:21.521Z,26.40
2019-02-19T02:31:48.698Z,26.13
2019-02-19T02:34:15.874Z,25.67
2019-02-19T02:36:43.567Z,22.10
2019-02-19T02:39:10.750Z,21.27
2019-02-19T02:41:37.949Z,22.13
2019-02-19T02:44:05.137Z,28.23
2019-02-19T02:46:32.398Z,22.90
2019-02-19T02:49:00.030Z,23.17
2019-02-19T02:51:27.218Z,27.30
2019-02-19T02:53:54.429Z,22.90
2019-02-19T02:56:21.598Z,22.23
2019-02-19T02:58:48.808Z,28.97
2019-02-19T03:01:15.976Z,23.83
2019-02-19T03:03:43.174Z,23.10
2019-02-19T03:06:11.974Z,22.57
2019-02-19T03:08:39.687Z,23.70
2019-02-19T03:11:06.875Z,27.93
2019-02-19T03:13:34.070Z,24.00
2019-02-19T03:16:02.647Z,24.67
2019-02-19T03:18:30.161Z,30.13
2019-02-19T03:20:57.987Z,27.57
2019-02-19T03:23:25.173Z,22.17
2019-02-19T03:25:52.816Z,25.00
2019-02-19T03:28:20.065Z,22.27
2019-02-19T03:30:47.267Z,25.33
2019-02-19T03:33:14.524Z,22.03
2019-02-19T03:35:41.696Z,25.33
2019-02-19T03:38:08.874Z,23.97
2019-02-19T03:40:36.054Z,25.13
2019-02-19T03:43:03.261Z,23.30
2019-02-19T03:45:30.440Z,24.63
2019-02-19T03:47:57.645Z,22.13
2019-02-19T03:50:24.813Z,23.10
2019-02-19T03:52:52.010Z,23.67
2019-02-19T03:55:19.773Z,21.10
2019-02-19T03:57:47.386Z,26.93
2019-02-19T04:00:14.562Z,27.17
2019-02-19T04:02:41.758Z,21.73
2019-02-19T04:05:08.944Z,31.43
2019-02-19T04:07:36.121Z,24.93
2019-02-19T04:10:04.477Z,28.33
2019-02-19T04:12:31.645Z,26.03
2019-02-19T04:14:59.371Z,21.87
2019-02-19T04:17:26.553Z,22.50
2019-02-19T04:19:53.731Z,29.50
2019-02-19T04:22:20.925Z,22.57
2019-02-19T04:24:48.125Z,25.63
2019-02-19T04:27:15.393Z,26.00
2019-02-19T04:29:42.657Z,19.03
2019-02-19T04:32:09.907Z,26.33
2019-02-19T04:34:37.115Z,23.27
2019-02-19T04:37:04.285Z,25.80
2019-02-19T04:39:31.495Z,25.10
2019-02-19T04:41:58.685Z,22.50
2019-02-19T04:44:25.878Z,23.10
2019-02-19T04:46:53.046Z,22.23
2019-02-19T04:49:20.215Z,24.70
2019-02-19T04:51:47.938Z,22.40
2019-02-19T04:54:15.107Z,24.00
2019-02-19T04:56:42.299Z,24.33
2019-02-19T04:59:09.570Z,21.23
2019-02-19T05:01:36.746Z,20.90
2019-02-19T05:04:04.998Z,31.23
2019-02-19T05:06:32.666Z,24.40
2019-02-19T05:08:59.847Z,23.47
2019-02-19T05:11:27.048Z,19.20
2019-02-19T05:13:54.221Z,23.93
2019-02-19T05:16:21.415Z,22.57
2019-02-19T05:18:48.611Z,22.50
2019-02-19T05:21:15.815Z,25.37
2019-02-19T05:23:42.991Z,24.10
2019-02-19T05:26:10.179Z,22.27
2019-02-19T05:28:37.381Z,23.27
2019-02-19T05:31:04.559Z,23.97
2019-02-19T05:33:31.738Z,24.03
2019-02-19T05:35:58.930Z,23.03
2019-02-19T05:38:26.226Z,28.40
2019-02-19T05:40:53.413Z,21.73
2019-02-19T05:43:20.585Z,21.33
2019-02-19T05:45:47.854Z,15.63
2019-02-19T05:48:15.028Z,25.47
2019-02-19T05:50:42.234Z,20.53
2019-02-19T05:53:09.411Z,20.30
2019-02-19T05:55:36.602Z,23.60
2019-02-19T05:58:03.805Z,19.77
2019-02-19T06:00:30.978Z,24.80
2019-02-19T06:02:58.166Z,20.67
2019-02-19T06:05:25.370Z,23.37
2019-02-19T06:07:52.568Z,19.73
2019-02-19T06:10:19.762Z,22.37
2019-02-19T06:12:47.446Z,23.07
2019-02-19T06:15:14.632Z,24.30
2019-02-19T06:17:42.360Z,22.77
2019-02-19T06:20:09.554Z,20.47
2019-02-19T06:22:36.800Z,18.77
2019-02-19T06:25:05.145Z,21.97
2019-02-19T06:27:32.394Z,23.77
2019-02-19T06:29:59.607Z,25.00
2019-02-19T06:32:26.774Z,22.73
2019-02-19T06:34:55.097Z,22.90
2019-02-19T06:37:22.377Z,27.80
2019-02-19T06:39:49.565Z,19.77
2019-02-19T06:42:16.757Z,22.07
2019-02-19T06:44:43.950Z,19.23
2019-02-19T06:47:12.649Z,25.97
2019-02-19T06:49:40.296Z,22.20
2019-02-19T06:52:07.484Z,17.33
2019-02-19T06:54:34.691Z,25.03
2019-02-19T06:57:01.862Z,23.73
2019-02-19T06:59:29.045Z,17.13
2019-02-19T07:02:03.711Z,20.60
2019-02-19T07:04:33.065Z,25.97
2019-02-19T07:07:00.238Z,21.67
2019-02-19T07:12:03.883Z,23.07
2019-02-19T07:14:31.055Z,31.13
2019-02-19T07:16:58.238Z,19.97
2019-02-19T07:19:25.433Z,22.20
2019-02-19T07:21:52.685Z,19.40
2019-02-19T07:24:19.874Z,20.67
2019-02-19T07:26:47.537Z,20.17
2019-02-19T07:29:15.165Z,20.83
2019-02-19T07:31:42.582Z,20.93
2019-02-19T07:34:10.516Z,17.27
2019-02-19T07:36:37.705Z,21.33
2019-02-19T07:39:05.258Z,30.40
2019-02-19T07:41:32.483Z,20.87
2019-02-19T07:44:01.202Z,18.77
2019-02-19T07:46:28.820Z,13.67
2019-02-19T07:48:56.006Z,25.23
2019-02-19T07:51:23.190Z,21.33
2019-02-19T07:53:50.381Z,18.33
2019-02-19T07:56:17.566Z,18.93
2019-02-19T07:58:45.300Z,20.83
2019-02-19T08:01:12.563Z,16.40
2019-02-19T08:03:40.211Z,22.03
2019-02-19T08:06:07.454Z,23.43
2019-02-19T08:08:34.636Z,15.13
2019-02-19T08:11:01.830Z,23.97
2019-02-19T08:13:29.005Z,19.93
2019-02-19T08:15:56.187Z,20.00
2019-02-19T08:18:25.130Z,18.70
2019-02-19T08:20:52.250Z,19.97
2019-02-19T08:23:19.430Z,18.27
2019-02-19T08:25:46.623Z,23.63
2019-02-19T08:28:13.816Z,16.37
2019-02-19T08:30:40.994Z,17.47
2019-02-19T08:33:08.169Z,23.27
2019-02-19T08:35:35.354Z,15.37
2019-02-19T08:38:02.529Z,18.20
2019-02-19T08:40:29.715Z,15.13
2019-02-19T08:42:56.965Z,17.87
2019-02-19T08:45:24.141Z,18.07
2019-02-19T08:47:51.317Z,17.33
2019-02-19T08:50:18.503Z,19.90
2019-02-19T08:52:46.204Z,25.13
2019-02-19T08:55:13.394Z,21.63
2019-02-19T08:57:40.562Z,22.23
2019-02-19T09:00:10.223Z,16.17
2019-02-19T09:02:37.418Z,19.93
2019-02-19T09:05:06.166Z,24.17
2019-02-19T09:07:33.342Z,28.00
2019-02-19T09:10:00.528Z,27.87
2019-02-19T09:12:28.192Z,16.87
2019-02-19T09:14:55.377Z,19.73
2019-02-19T09:17:22.619Z,19.77
2019-02-19T09:19:49.808Z,17.73
2019-02-19T09:22:16.999Z,20.47
2019-02-19T09:24:44.178Z,20.07
2019-02-19T09:27:11.371Z,21.93
2019-02-19T09:29:38.560Z,25.17
2019-02-19T09:32:05.725Z,20.57
2019-02-19T09:34:32.976Z,22.33
2019-02-19T09:37:00.164Z,21.27
2019-02-19T09:39:27.330Z,22.23
2019-02-19T09:41:54.521Z,21.60
2019-02-19T09:44:21.718Z,24.43
2019-02-19T09:46:49.447Z,28.07
2019-02-19T09:49:16.639Z,26.10
2019-02-19T09:51:45.533Z,28.83
2019-02-19T09:54:13.428Z,24.17
2019-02-19T09:56:40.602Z,28.83
2019-02-19T09:59:07.794Z,23.30
2019-02-19T10:01:35.002Z,34.03
2019-02-19T10:04:02.167Z,27.90
2019-02-19T10:06:29.366Z,26.13
2019-02-19T10:08:56.542Z,25.93
2019-02-19T10:11:23.728Z,28.83
2019-02-19T10:13:51.003Z,30.27
2019-02-19T10:16:18.202Z,30.40
2019-02-19T10:18:45.380Z,24.63
2019-02-19T10:21:13.003Z,31.93
2019-02-19T10:23:40.198Z,25.67
2019-02-19T10:26:07.391Z,33.83
2019-02-19T10:28:36.251Z,33.90
2019-02-19T10:31:03.461Z,28.60
2019-02-19T10:33:35.091Z,28.23
2019-02-19T10:35:59.563Z,26.23
2019-02-19T10:38:26.771Z,26.90
2019-02-19T10:40:53.963Z,24.67
2019-02-19T10:43:21.136Z,24.93
2019-02-19T10:45:48.334Z,25.17
2019-02-19T10:48:18.988Z,30.97
2019-02-19T10:50:44.950Z,26.70
2019-02-19T10:53:12.144Z,23.80
2019-02-19T10:55:39.839Z,29.43
2019-02-19T10:58:07.028Z,22.07
2019-02-19T11:00:34.755Z,27.23
2019-02-19T11:03:02.003Z,25.33
2019-02-19T11:05:29.186Z,24.27
2019-02-19T11:07:56.419Z,23.87
2019-02-19T11:10:24.622Z,27.67
2019-02-19T11:12:51.856Z,26.23
2019-02-19T11:15:19.159Z,28.03
2019-02-19T11:17:47.020Z,27.40
2019-02-19T11:20:15.495Z,25.63
2019-02-19T11:22:53.764Z,29.10
2019-02-19T11:25:21.467Z,31.20
2019-02-19T11:27:48.697Z,31.57
2019-02-19T11:30:16.350Z,28.63
2019-02-19T11:32:45.276Z,19.37
2019-02-19T11:35:21.309Z,23.63
2019-02-19T11:37:48.494Z,23.80
2019-02-19T11:40:15.755Z,24.43
2019-02-19T11:42:42.961Z,20.63
2019-02-19T11:45:11.770Z,24.90
2019-02-19T11:47:38.950Z,22.60
2019-02-19T11:50:06.595Z,22.40
2019-02-19T11:52:33.771Z,22.30
2019-02-19T11:55:05.804Z,22.63
2019-02-19T11:57:44.499Z,22.77
2019-02-19T12:00:14.886Z,23.17
2019-02-19T12:02:42.150Z,21.83
2019-02-19T12:05:09.319Z,20.73
2019-02-19T12:07:37.066Z,26.67
2019-02-19T12:10:05.526Z,24.80
2019-02-19T12:12:32.749Z,21.33
2019-02-19T12:14:59.945Z,24.97
2019-02-19T12:17:27.183Z,23.57
2019-02-19T12:19:54.385Z,18.10
2019-02-19T12:22:21.562Z,20.97
2019-02-19T12:24:48.776Z,20.00
2019-02-19T12:27:16.564Z,25.13
2019-02-19T12:29:43.799Z,21.70
2019-02-19T12:32:10.989Z,20.27
2019-02-19T12:34:38.187Z,24.50
2019-02-19T12:37:05.383Z,19.17
2019-02-19T12:39:32.640Z,20.43
2019-02-19T12:42:00.414Z,17.07
2019-02-19T12:44:27.647Z,20.77
2019-02-19T12:47:05.442Z,18.47
2019-02-19T12:49:32.618Z,21.60
2019-02-19T12:52:01.450Z,20.57
2019-02-19T12:54:31.940Z,22.17
2019-02-19T12:57:01.082Z,24.80
2019-02-19T12:59:31.384Z,20.27
2019-02-19T13:01:58.614Z,20.67
2019-02-19T13:04:26.405Z,19.27
2019-02-19T13:06:54.232Z,20.33
2019-02-19T13:09:22.254Z,20.40
2019-02-19T13:11:52.333Z,21.57
2019-02-19T13:14:19.559Z,18.53
2019-02-19T13:16:48.739Z,23.13
2019-02-19T13:19:15.680Z,20.87
2019-02-19T13:21:42.842Z,20.57
2019-02-19T13:24:10.091Z,21.40
2019-02-19T13:26:37.262Z,23.60
2019-02-19T13:29:04.464Z,19.73
2019-02-19T13:31:31.733Z,23.93
2019-02-19T13:33:58.902Z,25.47
2019-02-19T13:36:26.586Z,22.93
2019-02-19T13:38:53.769Z,22.77
2019-02-19T13:41:20.938Z,25.07
2019-02-19T13:43:48.126Z,23.30
2019-02-19T13:46:15.297Z,22.47
2019-02-19T13:48:42.526Z,17.10
2019-02-19T13:51:09.703Z,18.57
2019-02-19T13:53:44.230Z,20.53
2019-02-19T13:56:11.434Z,17.17
2019-02-19T13:58:41.506Z,14.00
2019-02-19T14:01:08.699Z,18.10
2019-02-19T14:03:35.894Z,30.33
2019-02-19T14:06:03.058Z,17.13
2019-02-19T14:08:30.255Z,18.23
2019-02-19T14:10:57.465Z,19.63
2019-02-19T14:13:24.698Z,15.43
2019-02-19T14:15:56.629Z,18.60
2019-02-19T14:18:28.170Z,16.17
2019-02-19T14:21:02.990Z,14.00
2019-02-19T14:23:51.701Z,18.53
2019-02-19T14:26:26.509Z,14.83
2019-02-19T14:29:09.971Z,13.83
2019-02-19T14:31:38.797Z,12.33
2019-02-19T14:34:07.702Z,15.37
2019-02-19T14:36:36.582Z,15.73
2019-02-19T14:39:22.422Z,13.90
2019-02-19T14:41:54.108Z,12.07
2019-02-19T14:44:22.923Z,15.70
2019-02-19T14:47:00.535Z,18.80
2019-02-19T14:49:37.476Z,14.33
2019-02-19T14:52:14.059Z,12.47
2019-02-19T14:54:57.575Z,12.33
2019-02-19T14:57:50.098Z,14.37
2019-02-19T15:00:40.690Z,15.80
2019-02-19T15:03:22.738Z,13.97
2019-02-19T15:06:03.419Z,13.40
2019-02-19T15:08:35.282Z,14.37
2019-02-19T15:11:10.074Z,10.23
2019-02-19T15:13:41.685Z,16.67
2019-02-19T15:16:12.073Z,11.17
2019-02-19T15:18:43.615Z,14.37
2019-02-19T15:21:15.375Z,14.67
2019-02-19T15:23:52.919Z,12.53
2019-02-19T15:26:21.738Z,15.37
2019-02-19T15:29:02.809Z,12.33
2019-02-19T15:31:44.214Z,10.60
2019-02-19T15:34:29.365Z,16.03
2019-02-19T15:37:17.786Z,14.67
2019-02-19T15:39:46.637Z,16.30
2019-02-19T15:42:24.235Z,12.77
2019-02-19T15:45:07.798Z,9.93
2019-02-19T15:47:39.322Z,12.70
2019-02-19T15:50:08.166Z,14.37
2019-02-19T15:52:45.703Z,17.37
2019-02-19T15:55:14.547Z,11.87
2019-02-19T15:57:46.013Z,11.37
2019-02-19T16:00:30.799Z,14.23
2019-02-19T16:02:59.601Z,14.43
2019-02-19T16:05:46.417Z,11.90
2019-02-19T16:08:15.234Z,19.87
2019-02-19T16:10:44.075Z,10.33
2019-02-19T16:13:15.521Z,13.17
2019-02-19T16:16:00.619Z,15.97
2019-02-19T16:18:32.126Z,10.13
2019-02-19T16:21:03.590Z,11.47
2019-02-19T16:23:32.419Z,18.83
2019-02-19T16:26:06.975Z,12.40
2019-02-19T16:28:41.518Z,13.83
2019-02-19T16:31:21.194Z,8.10
2019-02-19T16:33:52.071Z,15.53
2019-02-19T16:36:23.380Z,16.27
2019-02-19T16:38:52.212Z,9.50
2019-02-19T16:41:21.005Z,8.67
2019-02-19T16:43:55.663Z,16.40
2019-02-19T16:46:24.500Z,11.07
2019-02-19T16:48:56.194Z,9.00
2019-02-19T16:51:25.129Z,9.27
2019-02-19T16:53:54.092Z,12.57
2019-02-19T16:56:39.140Z,7.00
2019-02-19T16:59:26.922Z,12.77
2019-02-19T17:02:13.290Z,10.70
2019-02-19T17:04:42.098Z,10.20
2019-02-19T17:07:10.919Z,10.57
2019-02-19T17:09:48.596Z,16.40
2019-02-19T17:12:17.410Z,11.83
2019-02-19T17:14:51.822Z,13.53
2019-02-19T17:17:26.145Z,13.03
2019-02-19T17:19:55.099Z,11.03
2019-02-19T17:22:24.465Z,9.70
2019-02-19T17:25:11.094Z,10.73
2019-02-19T17:27:51.750Z,10.40
2019-02-19T17:30:23.180Z,14.67
2019-02-19T17:33:03.490Z,7.47
2019-02-19T17:35:34.828Z,10.93
2019-02-19T17:38:03.704Z,10.40
2019-02-19T17:40:32.519Z,8.23
2019-02-19T17:43:01.331Z,9.63
2019-02-19T17:45:35.684Z,11.93
2019-02-19T17:48:13.270Z,9.90
2019-02-19T17:50:44.508Z,7.70
2019-02-19T17:53:29.880Z,10.33
2019-02-19T17:55:58.771Z,11.73
2019-02-19T17:58:27.647Z,7.70
2019-02-19T18:00:59.262Z,7.27
2019-02-19T18:03:30.486Z,7.33
2019-02-19T18:05:59.296Z,9.37
2019-02-19T18:08:33.675Z,19.33
2019-02-19T18:11:18.494Z,8.23
2019-02-19T18:13:58.766Z,15.93
2019-02-19T18:16:30.038Z,8.40
2019-02-19T18:18:57.190Z,6.87
2019-02-19T18:21:28.453Z,9.73
2019-02-19T18:23:55.739Z,6.13
2019-02-19T18:26:22.913Z,7.80
2019-02-19T18:28:50.603Z,6.07
2019-02-19T18:31:17.809Z,5.83
2019-02-19T18:33:45.520Z,12.63
2019-02-19T18:36:12.782Z,7.50
2019-02-19T18:38:40.439Z,5.93
2019-02-19T18:41:07.623Z,6.17
2019-02-19T18:43:34.803Z,16.20
2019-02-19T18:46:01.989Z,7.67
2019-02-19T18:48:29.183Z,7.63
2019-02-19T18:50:58.404Z,10.27
2019-02-19T18:53:25.834Z,9.47
2019-02-19T18:55:53.633Z,9.43
2019-02-19T18:58:20.893Z,9.93
2019-02-19T19:00:48.090Z,8.50
2019-02-19T19:03:15.373Z,7.57
2019-02-19T19:05:42.548Z,6.73
2019-02-19T19:08:09.794Z,8.63
2019-02-19T19:10:36.992Z,6.70
2019-02-19T19:13:04.163Z,7.13
2019-02-19T19:15:31.391Z,8.13
2019-02-19T19:17:58.579Z,6.83
2019-02-19T19:20:25.750Z,5.97
2019-02-19T19:22:52.960Z,5.57
2019-02-19T19:25:20.661Z,4.13
2019-02-19T19:27:47.892Z,8.63
2019-02-19T19:30:15.877Z,8.50
2019-02-19T19:32:43.635Z,6.87
2019-02-19T19:35:10.988Z,13.87
2019-02-19T19:37:38.210Z,11.50
2019-02-19T19:40:10.314Z,7.30
2019-02-19T19:42:37.516Z,8.43
2019-02-19T19:45:06.354Z,4.60
2019-02-19T19:47:37.806Z,5.97
2019-02-19T19:50:06.547Z,9.10
2019-02-19T19:52:33.765Z,6.63
2019-02-19T19:55:01.007Z,4.97
2019-02-19T19:57:28.173Z,8.03
2019-02-19T19:59:55.407Z,5.53
2019-02-19T20:02:22.661Z,3.90
2019-02-19T20:04:49.928Z,6.50
2019-02-19T20:07:17.104Z,5.70
2019-02-19T20:09:44.376Z,4.93
2019-02-19T20:12:11.821Z,5.93
2019-02-19T20:14:39.006Z,4.50
2019-02-19T20:17:06.335Z,4.13
2019-02-19T20:19:34.656Z,3.97
2019-02-19T20:22:02.426Z,10.50
2019-02-19T20:24:29.757Z,3.13
2019-02-19T20:26:57.003Z,4.57
2019-02-19T20:29:24.803Z,6.23
2019-02-19T20:31:52.061Z,5.90
2019-02-19T20:34:19.335Z,3.50
2019-02-19T20:36:46.532Z,4.93
2019-02-19T20:39:15.236Z,6.10
2019-02-19T20:41:42.419Z,5.97
2019-02-19T20:44:09.890Z,7.47
2019-02-19T20:46:37.602Z,5.00
2019-02-19T20:49:04.766Z,6.23
2019-02-19T20:51:36.415Z,5.90
2019-02-19T20:54:00.899Z,4.30
2019-02-19T20:56:28.140Z,5.77
2019-02-19T20:58:55.902Z,6.53
2019-02-19T21:01:23.109Z,4.30
2019-02-19T21:03:50.306Z,7.13
2019-02-19T21:06:17.563Z,5.83
2019-02-19T21:08:44.755Z,6.73
2019-02-19T21:11:11.987Z,6.77
2019-02-19T21:13:39.296Z,4.70
2019-02-19T21:16:06.487Z,4.37
2019-02-19T21:18:33.755Z,6.70
2019-02-19T21:21:00.987Z,4.80
2019-02-19T21:23:28.159Z,8.17
2019-02-19T21:25:55.370Z,7.80
2019-02-19T21:28:22.577Z,11.57
2019-02-19T21:30:50.365Z,8.60
2019-02-19T21:33:17.552Z,7.27
2019-02-19T21:35:44.722Z,7.10
2019-02-19T21:38:11.909Z,6.20
2019-02-19T21:40:39.143Z,7.83
2019-02-19T21:43:06.408Z,8.03
2019-02-19T21:45:34.082Z,6.87
2019-02-19T21:48:01.240Z,9.67
2019-02-19T21:50:28.401Z,8.43
2019-02-19T21:52:55.577Z,6.63
2019-02-19T21:55:22.789Z,6.10
2019-02-19T21:57:49.966Z,7.17
2019-02-19T22:00:18.814Z,7.70
2019-02-19T22:02:46.054Z,9.63
2019-02-19T22:05:13.246Z,6.80
2019-02-19T22:07:40.452Z,5.80
2019-02-19T22:10:13.998Z,9.27
2019-02-19T22:12:41.187Z,8.83
2019-02-19T22:15:09.327Z,8.50
2019-02-19T22:17:36.494Z,7.30
2019-02-19T22:20:06.210Z,7.70
2019-02-19T22:22:33.453Z,5.30
2019-02-19T22:25:00.629Z,7.07
2019-02-19T22:27:27.875Z,7.93
2019-02-19T22:29:55.056Z,6.10
2019-02-19T22:32:22.226Z,8.20
2019-02-19T22:34:49.396Z,7.93
2019-02-19T22:37:16.609Z,6.20
2019-02-19T22:39:43.831Z,7.23
2019-02-19T22:42:11.002Z,9.90
2019-02-19T22:44:38.170Z,11.53
2019-02-19T22:47:05.360Z,5.23
2019-02-19T22:49:32.531Z,6.70
2019-02-19T22:51:59.699Z,6.53
2019-02-19T22:54:40.329Z,5.93
2019-02-19T22:57:07.486Z,6.17
2019-02-19T22:59:34.646Z,8.80
2019-02-19T23:02:03.476Z,7.07
2019-02-19T23:04:30.730Z,9.00
2019-02-19T23:06:57.910Z,5.03
2019-02-19T23:09:25.070Z,5.03
2019-02-19T23:11:52.259Z,6.40
2019-02-19T23:14:19.500Z,6.33
2019-02-19T23:16:46.659Z,10.00
2019-02-19T23:19:13.846Z,10.10
2019-02-19T23:21:41.017Z,5.80
2019-02-19T23:24:08.169Z,5.77
2019-02-19T23:26:35.367Z,4.43
2019-02-19T23:29:02.536Z,6.30
2019-02-19T23:31:29.724Z,6.90
2019-02-19T23:33:56.891Z,7.37
2019-02-19T23:36:25.705Z,6.37
2019-02-19T23:38:52.870Z,10.30
2019-02-19T23:41:20.054Z,10.13
2019-02-19T23:43:47.230Z,11.50
2019-02-19T23:46:14.415Z,10.33
2019-02-19T23:48:41.626Z,10.60
2019-02-19T23:51:09.285Z,10.43
2019-02-19T23:53:36.450Z,16.37
2019-02-19T23:56:03.649Z,12.43
2019-02-19T23:58:30.807Z,8.67
